sensor_id;sensor_type;location;lat;lon;timestamp;P1;durP1;ratioP1;P2;durP2;ratioP2
6378;SDS011;3222;48.858;10.128;2023-05-07T00:01:26;3.30;;;1.30;;
6378;SDS011;3222;48.858;10.128;2023-05-07T00:03:52;1.70;;;1.60;;
6378;SDS011;3222;48.858;10.128;2023-05-07T00:06:18;2.70;;;1.27;;
6378;SDS011;3222;48.858;10.128;2023-05-07T00:08:44;2.10;;;1.40;;
6378;SDS011;3222;48.858;10.128;2023-05-07T00:11:10;4.70;;;1.50;;
6378;SDS011;3222;48.858;10.128;2023-05-07T00:13:35;4.67;;;1.30;;
6378;SDS011;3222;48.858;10.128;2023-05-07T00:16:02;1.63;;;1.50;;
6378;SDS011;3222;48.858;10.128;2023-05-07T00:18:28;1.67;;;1.40;;
6378;SDS011;3222;48.858;10.128;2023-05-07T00:20:53;2.07;;;1.50;;
6378;SDS011;3222;48.858;10.128;2023-05-07T00:23:19;3.83;;;2.03;;
6378;SDS011;3222;48.858;10.128;2023-05-07T00:25:44;1.63;;;1.30;;
6378;SDS011;3222;48.858;10.128;2023-05-07T00:28:10;1.37;;;1.30;;
6378;SDS011;3222;48.858;10.128;2023-05-07T00:30:36;1.50;;;1.40;;
6378;SDS011;3222;48.858;10.128;2023-05-07T00:33:01;1.63;;;1.40;;
6378;SDS011;3222;48.858;10.128;2023-05-07T00:35:28;2.70;;;1.23;;
6378;SDS011;3222;48.858;10.128;2023-05-07T00:37:54;1.63;;;1.30;;
6378;SDS011;3222;48.858;10.128;2023-05-07T00:40:20;2.20;;;1.30;;
6378;SDS011;3222;48.858;10.128;2023-05-07T00:42:46;1.23;;;1.23;;
6378;SDS011;3222;48.858;10.128;2023-05-07T00:45:14;1.20;;;1.20;;
6378;SDS011;3222;48.858;10.128;2023-05-07T00:47:40;1.23;;;1.20;;
6378;SDS011;3222;48.858;10.128;2023-05-07T00:50:07;1.83;;;1.43;;
6378;SDS011;3222;48.858;10.128;2023-05-07T00:52:34;1.03;;;1.03;;
6378;SDS011;3222;48.858;10.128;2023-05-07T00:55:02;1.47;;;1.30;;
6378;SDS011;3222;48.858;10.128;2023-05-07T00:57:32;1.40;;;1.30;;
6378;SDS011;3222;48.858;10.128;2023-05-07T01:00:02;1.33;;;1.23;;
6378;SDS011;3222;48.858;10.128;2023-05-07T01:02:29;1.30;;;1.07;;
6378;SDS011;3222;48.858;10.128;2023-05-07T01:04:55;3.30;;;1.27;;
6378;SDS011;3222;48.858;10.128;2023-05-07T01:07:21;1.27;;;1.17;;
6378;SDS011;3222;48.858;10.128;2023-05-07T01:09:48;1.13;;;1.13;;
6378;SDS011;3222;48.858;10.128;2023-05-07T01:12:14;1.10;;;1.10;;
6378;SDS011;3222;48.858;10.128;2023-05-07T01:14:40;1.70;;;1.37;;
6378;SDS011;3222;48.858;10.128;2023-05-07T01:17:07;1.43;;;1.30;;
6378;SDS011;3222;48.858;10.128;2023-05-07T01:19:33;2.03;;;1.23;;
6378;SDS011;3222;48.858;10.128;2023-05-07T01:22:04;1.30;;;1.30;;
6378;SDS011;3222;48.858;10.128;2023-05-07T01:24:41;2.60;;;1.30;;
6378;SDS011;3222;48.858;10.128;2023-05-07T01:27:07;1.10;;;1.10;;
6378;SDS011;3222;48.858;10.128;2023-05-07T01:29:34;2.40;;;1.30;;
6378;SDS011;3222;48.858;10.128;2023-05-07T01:32:00;3.13;;;1.13;;
6378;SDS011;3222;48.858;10.128;2023-05-07T01:34:28;1.30;;;1.20;;
6378;SDS011;3222;48.858;10.128;2023-05-07T01:36:57;2.13;;;1.50;;
6378;SDS011;3222;48.858;10.128;2023-05-07T01:39:25;2.67;;;1.37;;
6378;SDS011;3222;48.858;10.128;2023-05-07T01:41:53;1.67;;;1.43;;
6378;SDS011;3222;48.858;10.128;2023-05-07T01:44:23;1.30;;;1.30;;
6378;SDS011;3222;48.858;10.128;2023-05-07T01:46:50;1.50;;;1.40;;
6378;SDS011;3222;48.858;10.128;2023-05-07T01:49:16;1.33;;;1.20;;
6378;SDS011;3222;48.858;10.128;2023-05-07T01:51:42;1.37;;;1.27;;
6378;SDS011;3222;48.858;10.128;2023-05-07T01:54:08;1.87;;;1.70;;
6378;SDS011;3222;48.858;10.128;2023-05-07T01:56:35;3.03;;;1.83;;
6378;SDS011;3222;48.858;10.128;2023-05-07T01:59:01;1.47;;;1.33;;
6378;SDS011;3222;48.858;10.128;2023-05-07T02:01:27;1.33;;;1.30;;
6378;SDS011;3222;48.858;10.128;2023-05-07T02:03:53;1.43;;;1.33;;
6378;SDS011;3222;48.858;10.128;2023-05-07T02:06:23;1.90;;;1.20;;
6378;SDS011;3222;48.858;10.128;2023-05-07T02:08:52;1.33;;;1.23;;
6378;SDS011;3222;48.858;10.128;2023-05-07T02:11:19;2.27;;;1.40;;
6378;SDS011;3222;48.858;10.128;2023-05-07T02:13:44;1.30;;;1.20;;
6378;SDS011;3222;48.858;10.128;2023-05-07T02:16:10;1.57;;;1.30;;
6378;SDS011;3222;48.858;10.128;2023-05-07T02:18:37;3.03;;;1.87;;
6378;SDS011;3222;48.858;10.128;2023-05-07T02:21:03;1.53;;;1.30;;
6378;SDS011;3222;48.858;10.128;2023-05-07T02:23:29;3.13;;;1.50;;
6378;SDS011;3222;48.858;10.128;2023-05-07T02:25:55;1.30;;;1.30;;
6378;SDS011;3222;48.858;10.128;2023-05-07T02:28:20;1.67;;;1.50;;
6378;SDS011;3222;48.858;10.128;2023-05-07T02:30:53;1.43;;;1.43;;
6378;SDS011;3222;48.858;10.128;2023-05-07T02:33:19;1.60;;;1.50;;
6378;SDS011;3222;48.858;10.128;2023-05-07T02:35:45;1.97;;;1.80;;
6378;SDS011;3222;48.858;10.128;2023-05-07T02:38:13;2.93;;;1.53;;
6378;SDS011;3222;48.858;10.128;2023-05-07T02:40:40;1.83;;;1.70;;
6378;SDS011;3222;48.858;10.128;2023-05-07T02:43:05;1.77;;;1.63;;
6378;SDS011;3222;48.858;10.128;2023-05-07T02:45:32;2.10;;;1.80;;
6378;SDS011;3222;48.858;10.128;2023-05-07T02:47:59;1.90;;;1.80;;
6378;SDS011;3222;48.858;10.128;2023-05-07T02:50:24;1.90;;;1.80;;
6378;SDS011;3222;48.858;10.128;2023-05-07T02:52:51;1.60;;;1.50;;
6378;SDS011;3222;48.858;10.128;2023-05-07T02:55:17;1.80;;;1.50;;
6378;SDS011;3222;48.858;10.128;2023-05-07T02:57:43;1.90;;;1.80;;
6378;SDS011;3222;48.858;10.128;2023-05-07T03:00:10;2.20;;;1.60;;
6378;SDS011;3222;48.858;10.128;2023-05-07T03:02:44;1.90;;;1.67;;
6378;SDS011;3222;48.858;10.128;2023-05-07T03:05:10;13.77;;;1.97;;
6378;SDS011;3222;48.858;10.128;2023-05-07T03:07:36;1.80;;;1.70;;
6378;SDS011;3222;48.858;10.128;2023-05-07T03:10:03;1.80;;;1.70;;
6378;SDS011;3222;48.858;10.128;2023-05-07T03:12:29;1.80;;;1.70;;
6378;SDS011;3222;48.858;10.128;2023-05-07T03:14:55;1.77;;;1.50;;
6378;SDS011;3222;48.858;10.128;2023-05-07T03:17:21;2.00;;;1.80;;
6378;SDS011;3222;48.858;10.128;2023-05-07T03:19:47;1.70;;;1.60;;
6378;SDS011;3222;48.858;10.128;2023-05-07T03:22:12;2.77;;;1.60;;
6378;SDS011;3222;48.858;10.128;2023-05-07T03:24:39;2.23;;;1.73;;
6378;SDS011;3222;48.858;10.128;2023-05-07T03:27:04;4.80;;;1.90;;
6378;SDS011;3222;48.858;10.128;2023-05-07T03:29:30;2.03;;;1.93;;
6378;SDS011;3222;48.858;10.128;2023-05-07T03:31:55;1.70;;;1.60;;
6378;SDS011;3222;48.858;10.128;2023-05-07T03:34:21;3.47;;;2.23;;
6378;SDS011;3222;48.858;10.128;2023-05-07T03:36:50;2.73;;;2.53;;
6378;SDS011;3222;48.858;10.128;2023-05-07T03:39:18;3.80;;;2.23;;
6378;SDS011;3222;48.858;10.128;2023-05-07T03:41:43;4.57;;;2.27;;
6378;SDS011;3222;48.858;10.128;2023-05-07T03:44:09;2.03;;;1.93;;
6378;SDS011;3222;48.858;10.128;2023-05-07T03:46:35;2.20;;;2.10;;
6378;SDS011;3222;48.858;10.128;2023-05-07T03:49:02;2.73;;;2.03;;
6378;SDS011;3222;48.858;10.128;2023-05-07T03:51:29;2.33;;;2.13;;
6378;SDS011;3222;48.858;10.128;2023-05-07T03:53:55;2.60;;;2.40;;
6378;SDS011;3222;48.858;10.128;2023-05-07T03:56:23;4.33;;;2.07;;
6378;SDS011;3222;48.858;10.128;2023-05-07T03:58:53;2.40;;;2.17;;
6378;SDS011;3222;48.858;10.128;2023-05-07T04:01:19;2.77;;;2.33;;
6378;SDS011;3222;48.858;10.128;2023-05-07T04:03:46;2.17;;;2.07;;
6378;SDS011;3222;48.858;10.128;2023-05-07T04:06:11;2.20;;;2.00;;
6378;SDS011;3222;48.858;10.128;2023-05-07T04:08:39;2.20;;;2.00;;
6378;SDS011;3222;48.858;10.128;2023-05-07T04:11:06;2.30;;;2.20;;
6378;SDS011;3222;48.858;10.128;2023-05-07T04:13:34;2.67;;;2.53;;
6378;SDS011;3222;48.858;10.128;2023-05-07T04:16:02;2.50;;;2.30;;
6378;SDS011;3222;48.858;10.128;2023-05-07T04:18:29;4.23;;;2.27;;
6378;SDS011;3222;48.858;10.128;2023-05-07T04:20:54;2.63;;;2.43;;
6378;SDS011;3222;48.858;10.128;2023-05-07T04:23:20;2.57;;;2.37;;
6378;SDS011;3222;48.858;10.128;2023-05-07T04:25:46;2.93;;;2.30;;
6378;SDS011;3222;48.858;10.128;2023-05-07T04:28:34;2.63;;;2.43;;
6378;SDS011;3222;48.858;10.128;2023-05-07T04:31:01;2.27;;;2.17;;
6378;SDS011;3222;48.858;10.128;2023-05-07T04:33:28;2.70;;;2.50;;
6378;SDS011;3222;48.858;10.128;2023-05-07T04:35:56;3.17;;;2.37;;
6378;SDS011;3222;48.858;10.128;2023-05-07T04:38:21;2.20;;;2.00;;
6378;SDS011;3222;48.858;10.128;2023-05-07T04:40:50;3.17;;;2.53;;
6378;SDS011;3222;48.858;10.128;2023-05-07T04:43:19;2.93;;;2.53;;
6378;SDS011;3222;48.858;10.128;2023-05-07T04:45:49;4.07;;;2.70;;
6378;SDS011;3222;48.858;10.128;2023-05-07T04:48:16;2.80;;;2.60;;
6378;SDS011;3222;48.858;10.128;2023-05-07T04:50:44;3.30;;;3.00;;
6378;SDS011;3222;48.858;10.128;2023-05-07T04:53:13;3.40;;;3.10;;
6378;SDS011;3222;48.858;10.128;2023-05-07T04:55:39;3.53;;;2.90;;
6378;SDS011;3222;48.858;10.128;2023-05-07T04:58:06;3.43;;;3.13;;
6378;SDS011;3222;48.858;10.128;2023-05-07T05:00:33;3.30;;;2.90;;
6378;SDS011;3222;48.858;10.128;2023-05-07T05:03:02;4.17;;;2.93;;
6378;SDS011;3222;48.858;10.128;2023-05-07T05:05:28;3.40;;;3.10;;
6378;SDS011;3222;48.858;10.128;2023-05-07T05:07:54;3.70;;;3.30;;
6378;SDS011;3222;48.858;10.128;2023-05-07T05:10:20;3.50;;;3.20;;
6378;SDS011;3222;48.858;10.128;2023-05-07T05:12:48;3.20;;;3.00;;
6378;SDS011;3222;48.858;10.128;2023-05-07T05:15:13;4.63;;;3.27;;
6378;SDS011;3222;48.858;10.128;2023-05-07T05:17:41;3.03;;;2.83;;
6378;SDS011;3222;48.858;10.128;2023-05-07T05:20:07;5.53;;;3.37;;
6378;SDS011;3222;48.858;10.128;2023-05-07T05:22:36;3.80;;;3.30;;
6378;SDS011;3222;48.858;10.128;2023-05-07T05:25:02;3.73;;;3.40;;
6378;SDS011;3222;48.858;10.128;2023-05-07T05:27:28;3.10;;;2.90;;
6378;SDS011;3222;48.858;10.128;2023-05-07T05:29:55;5.43;;;3.83;;
6378;SDS011;3222;48.858;10.128;2023-05-07T05:32:20;4.63;;;3.30;;
6378;SDS011;3222;48.858;10.128;2023-05-07T05:34:47;4.13;;;3.33;;
6378;SDS011;3222;48.858;10.128;2023-05-07T05:37:12;4.70;;;3.20;;
6378;SDS011;3222;48.858;10.128;2023-05-07T05:39:39;4.73;;;3.50;;
6378;SDS011;3222;48.858;10.128;2023-05-07T05:42:05;4.00;;;3.20;;
6378;SDS011;3222;48.858;10.128;2023-05-07T05:44:34;3.77;;;3.47;;
6378;SDS011;3222;48.858;10.128;2023-05-07T05:47:00;3.23;;;2.90;;
6378;SDS011;3222;48.858;10.128;2023-05-07T05:49:27;5.50;;;3.50;;
6378;SDS011;3222;48.858;10.128;2023-05-07T05:51:52;3.30;;;3.00;;
6378;SDS011;3222;48.858;10.128;2023-05-07T05:54:19;3.67;;;3.33;;
6378;SDS011;3222;48.858;10.128;2023-05-07T05:56:46;3.63;;;3.20;;
6378;SDS011;3222;48.858;10.128;2023-05-07T05:59:13;3.27;;;2.97;;
6378;SDS011;3222;48.858;10.128;2023-05-07T06:01:39;3.60;;;2.83;;
6378;SDS011;3222;48.858;10.128;2023-05-07T06:04:05;5.50;;;2.97;;
6378;SDS011;3222;48.858;10.128;2023-05-07T06:06:31;3.43;;;2.70;;
6378;SDS011;3222;48.858;10.128;2023-05-07T06:08:57;6.07;;;3.00;;
6378;SDS011;3222;48.858;10.128;2023-05-07T06:11:29;3.13;;;2.93;;
6378;SDS011;3222;48.858;10.128;2023-05-07T06:13:55;3.50;;;3.20;;
6378;SDS011;3222;48.858;10.128;2023-05-07T06:16:20;3.17;;;2.97;;
6378;SDS011;3222;48.858;10.128;2023-05-07T06:18:47;3.37;;;3.07;;
6378;SDS011;3222;48.858;10.128;2023-05-07T06:21:14;3.20;;;2.90;;
6378;SDS011;3222;48.858;10.128;2023-05-07T06:23:40;5.20;;;2.97;;
6378;SDS011;3222;48.858;10.128;2023-05-07T06:26:06;3.87;;;2.87;;
6378;SDS011;3222;48.858;10.128;2023-05-07T06:28:36;3.67;;;2.87;;
6378;SDS011;3222;48.858;10.128;2023-05-07T06:31:14;3.20;;;3.00;;
6378;SDS011;3222;48.858;10.128;2023-05-07T06:33:45;3.13;;;2.63;;
6378;SDS011;3222;48.858;10.128;2023-05-07T06:36:12;4.40;;;2.53;;
6378;SDS011;3222;48.858;10.128;2023-05-07T06:38:38;3.50;;;2.83;;
6378;SDS011;3222;48.858;10.128;2023-05-07T06:41:05;2.77;;;2.57;;
6378;SDS011;3222;48.858;10.128;2023-05-07T06:43:31;4.13;;;2.77;;
6378;SDS011;3222;48.858;10.128;2023-05-07T06:46:23;3.27;;;2.80;;
6378;SDS011;3222;48.858;10.128;2023-05-07T06:48:49;3.17;;;2.60;;
6378;SDS011;3222;48.858;10.128;2023-05-07T06:51:15;2.57;;;2.37;;
6378;SDS011;3222;48.858;10.128;2023-05-07T06:53:40;3.17;;;2.50;;
6378;SDS011;3222;48.858;10.128;2023-05-07T06:56:09;3.53;;;3.23;;
6378;SDS011;3222;48.858;10.128;2023-05-07T06:58:37;4.13;;;2.30;;
6378;SDS011;3222;48.858;10.128;2023-05-07T07:01:03;2.40;;;2.30;;
6378;SDS011;3222;48.858;10.128;2023-05-07T07:03:30;2.30;;;2.20;;
6378;SDS011;3222;48.858;10.128;2023-05-07T07:05:56;2.47;;;2.27;;
6378;SDS011;3222;48.858;10.128;2023-05-07T07:08:22;2.83;;;2.63;;
6378;SDS011;3222;48.858;10.128;2023-05-07T07:10:49;2.70;;;2.40;;
6378;SDS011;3222;48.858;10.128;2023-05-07T07:13:14;2.97;;;2.40;;
6378;SDS011;3222;48.858;10.128;2023-05-07T07:15:40;1.93;;;1.83;;
6378;SDS011;3222;48.858;10.128;2023-05-07T07:18:06;2.30;;;2.20;;
6378;SDS011;3222;48.858;10.128;2023-05-07T07:20:32;2.60;;;2.40;;
6378;SDS011;3222;48.858;10.128;2023-05-07T07:22:58;3.63;;;2.43;;
6378;SDS011;3222;48.858;10.128;2023-05-07T07:25:24;2.27;;;2.10;;
6378;SDS011;3222;48.858;10.128;2023-05-07T07:27:51;2.40;;;2.20;;
6378;SDS011;3222;48.858;10.128;2023-05-07T07:30:16;2.23;;;2.00;;
6378;SDS011;3222;48.858;10.128;2023-05-07T07:32:45;2.73;;;2.10;;
6378;SDS011;3222;48.858;10.128;2023-05-07T07:35:11;2.30;;;2.10;;
6378;SDS011;3222;48.858;10.128;2023-05-07T07:37:38;2.40;;;2.13;;
6378;SDS011;3222;48.858;10.128;2023-05-07T07:40:04;2.07;;;1.87;;
6378;SDS011;3222;48.858;10.128;2023-05-07T07:42:31;3.33;;;2.00;;
6378;SDS011;3222;48.858;10.128;2023-05-07T07:44:57;1.90;;;1.77;;
6378;SDS011;3222;48.858;10.128;2023-05-07T07:47:25;2.20;;;1.83;;
6378;SDS011;3222;48.858;10.128;2023-05-07T07:49:51;1.53;;;1.50;;
6378;SDS011;3222;48.858;10.128;2023-05-07T07:52:18;2.00;;;1.90;;
6378;SDS011;3222;48.858;10.128;2023-05-07T07:54:44;2.60;;;1.63;;
6378;SDS011;3222;48.858;10.128;2023-05-07T07:57:10;1.63;;;1.60;;
6378;SDS011;3222;48.858;10.128;2023-05-07T07:59:36;1.60;;;1.60;;
6378;SDS011;3222;48.858;10.128;2023-05-07T08:02:03;1.90;;;1.60;;
6378;SDS011;3222;48.858;10.128;2023-05-07T08:04:29;1.83;;;1.30;;
6378;SDS011;3222;48.858;10.128;2023-05-07T08:06:59;2.43;;;1.50;;
6378;SDS011;3222;48.858;10.128;2023-05-07T08:09:25;1.57;;;1.30;;
6378;SDS011;3222;48.858;10.128;2023-05-07T08:11:53;1.73;;;1.53;;
6378;SDS011;3222;48.858;10.128;2023-05-07T08:14:18;1.60;;;1.50;;
6378;SDS011;3222;48.858;10.128;2023-05-07T08:16:46;1.77;;;1.30;;
6378;SDS011;3222;48.858;10.128;2023-05-07T08:19:12;2.00;;;1.60;;
6378;SDS011;3222;48.858;10.128;2023-05-07T08:21:38;2.07;;;1.70;;
6378;SDS011;3222;48.858;10.128;2023-05-07T08:24:04;2.27;;;1.60;;
6378;SDS011;3222;48.858;10.128;2023-05-07T08:26:30;2.30;;;1.40;;
6378;SDS011;3222;48.858;10.128;2023-05-07T08:28:56;1.70;;;1.60;;
6378;SDS011;3222;48.858;10.128;2023-05-07T08:31:23;1.70;;;1.60;;
6378;SDS011;3222;48.858;10.128;2023-05-07T08:33:49;2.47;;;1.70;;
6378;SDS011;3222;48.858;10.128;2023-05-07T08:36:15;2.83;;;2.03;;
6378;SDS011;3222;48.858;10.128;2023-05-07T08:38:42;1.90;;;1.73;;
6378;SDS011;3222;48.858;10.128;2023-05-07T08:41:11;1.47;;;1.30;;
6378;SDS011;3222;48.858;10.128;2023-05-07T08:43:38;2.20;;;1.50;;
6378;SDS011;3222;48.858;10.128;2023-05-07T08:46:06;3.67;;;1.40;;
6378;SDS011;3222;48.858;10.128;2023-05-07T08:48:36;1.70;;;1.60;;
6378;SDS011;3222;48.858;10.128;2023-05-07T08:51:08;3.13;;;1.90;;
6378;SDS011;3222;48.858;10.128;2023-05-07T08:53:38;2.93;;;1.70;;
6378;SDS011;3222;48.858;10.128;2023-05-07T08:56:08;2.30;;;2.10;;
6378;SDS011;3222;48.858;10.128;2023-05-07T08:58:34;1.83;;;1.73;;
6378;SDS011;3222;48.858;10.128;2023-05-07T09:01:02;4.93;;;1.70;;
6378;SDS011;3222;48.858;10.128;2023-05-07T09:03:32;2.03;;;1.80;;
6378;SDS011;3222;48.858;10.128;2023-05-07T09:05:58;1.60;;;1.50;;
6378;SDS011;3222;48.858;10.128;2023-05-07T09:08:26;1.70;;;1.60;;
6378;SDS011;3222;48.858;10.128;2023-05-07T09:10:53;1.63;;;1.20;;
6378;SDS011;3222;48.858;10.128;2023-05-07T09:13:21;2.80;;;1.63;;
6378;SDS011;3222;48.858;10.128;2023-05-07T09:15:47;3.07;;;1.33;;
6378;SDS011;3222;48.858;10.128;2023-05-07T09:18:13;2.63;;;1.73;;
6378;SDS011;3222;48.858;10.128;2023-05-07T09:20:40;2.00;;;1.60;;
6378;SDS011;3222;48.858;10.128;2023-05-07T09:23:07;1.40;;;1.40;;
6378;SDS011;3222;48.858;10.128;2023-05-07T09:25:34;1.83;;;1.43;;
6378;SDS011;3222;48.858;10.128;2023-05-07T09:28:06;1.60;;;1.50;;
6378;SDS011;3222;48.858;10.128;2023-05-07T09:30:33;3.17;;;2.03;;
6378;SDS011;3222;48.858;10.128;2023-05-07T09:33:03;1.70;;;1.23;;
6378;SDS011;3222;48.858;10.128;2023-05-07T09:35:29;2.23;;;1.30;;
6378;SDS011;3222;48.858;10.128;2023-05-07T09:38:00;2.53;;;1.70;;
6378;SDS011;3222;48.858;10.128;2023-05-07T09:40:29;1.80;;;1.70;;
6378;SDS011;3222;48.858;10.128;2023-05-07T09:43:08;1.53;;;1.43;;
6378;SDS011;3222;48.858;10.128;2023-05-07T09:45:37;1.80;;;1.70;;
6378;SDS011;3222;48.858;10.128;2023-05-07T09:48:04;1.60;;;1.50;;
6378;SDS011;3222;48.858;10.128;2023-05-07T09:50:40;2.20;;;2.00;;
6378;SDS011;3222;48.858;10.128;2023-05-07T09:53:15;2.33;;;2.13;;
6378;SDS011;3222;48.858;10.128;2023-05-07T09:55:42;1.57;;;1.47;;
6378;SDS011;3222;48.858;10.128;2023-05-07T09:58:09;1.97;;;1.77;;
6378;SDS011;3222;48.858;10.128;2023-05-07T10:00:37;2.33;;;1.80;;
6378;SDS011;3222;48.858;10.128;2023-05-07T10:03:09;1.60;;;1.50;;
6378;SDS011;3222;48.858;10.128;2023-05-07T10:05:44;2.50;;;1.60;;
6378;SDS011;3222;48.858;10.128;2023-05-07T10:08:13;3.20;;;1.50;;
6378;SDS011;3222;48.858;10.128;2023-05-07T10:10:42;1.87;;;1.70;;
6378;SDS011;3222;48.858;10.128;2023-05-07T10:13:11;1.47;;;1.37;;
6378;SDS011;3222;48.858;10.128;2023-05-07T10:15:42;2.33;;;1.50;;
6378;SDS011;3222;48.858;10.128;2023-05-07T10:18:08;1.60;;;1.50;;
6378;SDS011;3222;48.858;10.128;2023-05-07T10:20:35;1.30;;;1.30;;
6378;SDS011;3222;48.858;10.128;2023-05-07T10:23:04;3.70;;;1.70;;
6378;SDS011;3222;48.858;10.128;2023-05-07T10:25:37;1.40;;;1.30;;
6378;SDS011;3222;48.858;10.128;2023-05-07T10:28:09;1.50;;;1.40;;
6378;SDS011;3222;48.858;10.128;2023-05-07T10:30:45;2.80;;;1.60;;
6378;SDS011;3222;48.858;10.128;2023-05-07T10:33:13;2.97;;;1.23;;
6378;SDS011;3222;48.858;10.128;2023-05-07T10:35:44;1.57;;;1.00;;
6378;SDS011;3222;48.858;10.128;2023-05-07T10:38:12;1.50;;;1.40;;
6378;SDS011;3222;48.858;10.128;2023-05-07T10:40:40;2.33;;;1.63;;
6378;SDS011;3222;48.858;10.128;2023-05-07T10:43:08;2.90;;;1.63;;
6378;SDS011;3222;48.858;10.128;2023-05-07T10:45:40;2.67;;;1.47;;
6378;SDS011;3222;48.858;10.128;2023-05-07T10:48:13;1.70;;;1.40;;
6378;SDS011;3222;48.858;10.128;2023-05-07T10:50:43;1.97;;;1.50;;
6378;SDS011;3222;48.858;10.128;2023-05-07T10:55:52;2.63;;;1.63;;
6378;SDS011;3222;48.858;10.128;2023-05-07T10:58:49;1.40;;;1.30;;
6378;SDS011;3222;48.858;10.128;2023-05-07T11:04:22;5.30;;;1.50;;
6378;SDS011;3222;48.858;10.128;2023-05-07T11:15:04;1.50;;;1.37;;
6378;SDS011;3222;48.858;10.128;2023-05-07T11:17:34;1.40;;;1.30;;
6378;SDS011;3222;48.858;10.128;2023-05-07T11:20:16;1.33;;;1.23;;
6378;SDS011;3222;48.858;10.128;2023-05-07T11:22:50;1.10;;;1.10;;
6378;SDS011;3222;48.858;10.128;2023-05-07T11:25:23;2.83;;;1.20;;
6378;SDS011;3222;48.858;10.128;2023-05-07T11:27:56;1.63;;;1.43;;
6378;SDS011;3222;48.858;10.128;2023-05-07T11:30:32;1.63;;;1.37;;
6378;SDS011;3222;48.858;10.128;2023-05-07T11:32:59;2.17;;;1.27;;
6378;SDS011;3222;48.858;10.128;2023-05-07T11:35:25;1.80;;;1.70;;
6378;SDS011;3222;48.858;10.128;2023-05-07T11:37:57;14.93;;;2.07;;
6378;SDS011;3222;48.858;10.128;2023-05-07T11:40:25;1.27;;;1.17;;
6378;SDS011;3222;48.858;10.128;2023-05-07T11:42:50;4.27;;;1.67;;
6378;SDS011;3222;48.858;10.128;2023-05-07T11:45:22;2.23;;;1.20;;
6378;SDS011;3222;48.858;10.128;2023-05-07T11:47:50;1.90;;;1.50;;
6378;SDS011;3222;48.858;10.128;2023-05-07T11:50:16;1.77;;;1.60;;
6378;SDS011;3222;48.858;10.128;2023-05-07T11:52:49;3.73;;;1.30;;
6378;SDS011;3222;48.858;10.128;2023-05-07T11:55:17;1.43;;;1.30;;
6378;SDS011;3222;48.858;10.128;2023-05-07T11:57:43;2.63;;;1.23;;
6378;SDS011;3222;48.858;10.128;2023-05-07T12:00:10;1.27;;;1.23;;
6378;SDS011;3222;48.858;10.128;2023-05-07T12:02:39;2.93;;;1.37;;
6378;SDS011;3222;48.858;10.128;2023-05-07T12:05:04;3.93;;;1.30;;
6378;SDS011;3222;48.858;10.128;2023-05-07T12:07:32;1.93;;;1.33;;
6378;SDS011;3222;48.858;10.128;2023-05-07T12:09:59;1.23;;;1.23;;
6378;SDS011;3222;48.858;10.128;2023-05-07T12:12:24;1.47;;;1.30;;
6378;SDS011;3222;48.858;10.128;2023-05-07T12:14:52;1.70;;;1.60;;
6378;SDS011;3222;48.858;10.128;2023-05-07T12:17:17;1.50;;;1.40;;
6378;SDS011;3222;48.858;10.128;2023-05-07T12:19:43;1.53;;;1.30;;
6378;SDS011;3222;48.858;10.128;2023-05-07T12:22:10;1.27;;;1.20;;
6378;SDS011;3222;48.858;10.128;2023-05-07T12:27:36;1.93;;;1.60;;
6378;SDS011;3222;48.858;10.128;2023-05-07T12:30:03;1.90;;;1.40;;
6378;SDS011;3222;48.858;10.128;2023-05-07T12:32:29;1.97;;;1.30;;
6378;SDS011;3222;48.858;10.128;2023-05-07T12:34:54;1.40;;;1.30;;
6378;SDS011;3222;48.858;10.128;2023-05-07T12:37:23;3.50;;;1.40;;
6378;SDS011;3222;48.858;10.128;2023-05-07T12:40:03;1.70;;;1.53;;
6378;SDS011;3222;48.858;10.128;2023-05-07T12:42:37;1.90;;;1.40;;
6378;SDS011;3222;48.858;10.128;2023-05-07T12:45:10;2.03;;;1.40;;
6378;SDS011;3222;48.858;10.128;2023-05-07T12:47:36;4.77;;;1.20;;
6378;SDS011;3222;48.858;10.128;2023-05-07T12:50:04;1.43;;;1.40;;
6378;SDS011;3222;48.858;10.128;2023-05-07T12:52:31;2.50;;;1.10;;
6378;SDS011;3222;48.858;10.128;2023-05-07T12:54:57;1.40;;;1.30;;
6378;SDS011;3222;48.858;10.128;2023-05-07T12:57:31;1.57;;;1.50;;
6378;SDS011;3222;48.858;10.128;2023-05-07T13:00:04;1.67;;;1.57;;
6378;SDS011;3222;48.858;10.128;2023-05-07T13:02:33;2.40;;;1.50;;
6378;SDS011;3222;48.858;10.128;2023-05-07T13:05:02;1.83;;;1.40;;
6378;SDS011;3222;48.858;10.128;2023-05-07T13:07:28;1.30;;;1.20;;
6378;SDS011;3222;48.858;10.128;2023-05-07T13:09:53;3.77;;;1.53;;
6378;SDS011;3222;48.858;10.128;2023-05-07T13:12:19;1.33;;;1.30;;
6378;SDS011;3222;48.858;10.128;2023-05-07T13:14:45;1.57;;;1.30;;
6378;SDS011;3222;48.858;10.128;2023-05-07T13:17:10;1.30;;;1.30;;
6378;SDS011;3222;48.858;10.128;2023-05-07T13:19:36;2.07;;;1.50;;
6378;SDS011;3222;48.858;10.128;2023-05-07T13:22:02;2.57;;;1.60;;
6378;SDS011;3222;48.858;10.128;2023-05-07T13:24:28;1.80;;;1.30;;
6378;SDS011;3222;48.858;10.128;2023-05-07T13:26:54;1.50;;;1.40;;
6378;SDS011;3222;48.858;10.128;2023-05-07T13:29:20;1.43;;;1.20;;
6378;SDS011;3222;48.858;10.128;2023-05-07T13:31:50;1.40;;;1.30;;
6378;SDS011;3222;48.858;10.128;2023-05-07T13:34:16;1.67;;;1.50;;
6378;SDS011;3222;48.858;10.128;2023-05-07T13:36:41;1.80;;;1.70;;
6378;SDS011;3222;48.858;10.128;2023-05-07T13:39:07;1.48;;;1.35;;
6378;SDS011;3222;48.858;10.128;2023-05-07T13:41:34;1.63;;;1.60;;
6378;SDS011;3222;48.858;10.128;2023-05-07T13:43:59;2.17;;;1.40;;
6378;SDS011;3222;48.858;10.128;2023-05-07T13:46:25;1.73;;;1.30;;
6378;SDS011;3222;48.858;10.128;2023-05-07T13:48:51;1.52;;;1.35;;
6378;SDS011;3222;48.858;10.128;2023-05-07T13:51:16;1.42;;;1.33;;
6378;SDS011;3222;48.858;10.128;2023-05-07T13:53:43;2.37;;;2.17;;
6378;SDS011;3222;48.858;10.128;2023-05-07T13:56:08;1.63;;;1.52;;
6378;SDS011;3222;48.858;10.128;2023-05-07T13:58:34;1.63;;;1.53;;
6378;SDS011;3222;48.858;10.128;2023-05-07T14:01:01;1.60;;;1.50;;
6378;SDS011;3222;48.858;10.128;2023-05-07T14:03:27;1.20;;;1.20;;
6378;SDS011;3222;48.858;10.128;2023-05-07T14:05:52;5.23;;;1.67;;
6378;SDS011;3222;48.858;10.128;2023-05-07T14:08:18;1.60;;;1.42;;
6378;SDS011;3222;48.858;10.128;2023-05-07T14:10:45;2.03;;;1.70;;
6378;SDS011;3222;48.858;10.128;2023-05-07T14:13:11;1.40;;;1.30;;
6378;SDS011;3222;48.858;10.128;2023-05-07T14:15:37;1.98;;;1.50;;
6378;SDS011;3222;48.858;10.128;2023-05-07T14:18:02;2.85;;;1.50;;
6378;SDS011;3222;48.858;10.128;2023-05-07T14:20:28;2.50;;;1.57;;
6378;SDS011;3222;48.858;10.128;2023-05-07T14:22:55;4.60;;;1.58;;
6378;SDS011;3222;48.858;10.128;2023-05-07T14:25:21;3.63;;;1.70;;
6378;SDS011;3222;48.858;10.128;2023-05-07T14:27:50;1.40;;;1.30;;
6378;SDS011;3222;48.858;10.128;2023-05-07T14:30:15;3.42;;;1.63;;
6378;SDS011;3222;48.858;10.128;2023-05-07T14:32:41;1.60;;;1.40;;
6378;SDS011;3222;48.858;10.128;2023-05-07T14:35:07;2.25;;;1.48;;
6378;SDS011;3222;48.858;10.128;2023-05-07T14:37:33;2.17;;;1.50;;
6378;SDS011;3222;48.858;10.128;2023-05-07T14:39:59;1.60;;;1.50;;
6378;SDS011;3222;48.858;10.128;2023-05-07T14:42:24;1.88;;;1.48;;
6378;SDS011;3222;48.858;10.128;2023-05-07T14:44:50;1.60;;;1.50;;
6378;SDS011;3222;48.858;10.128;2023-05-07T14:47:17;2.83;;;1.70;;
6378;SDS011;3222;48.858;10.128;2023-05-07T14:49:43;1.60;;;1.30;;
6378;SDS011;3222;48.858;10.128;2023-05-07T14:52:09;1.90;;;1.70;;
6378;SDS011;3222;48.858;10.128;2023-05-07T14:54:35;2.78;;;1.40;;
6378;SDS011;3222;48.858;10.128;2023-05-07T14:57:01;1.40;;;1.30;;
6378;SDS011;3222;48.858;10.128;2023-05-07T14:59:27;1.60;;;1.50;;
6378;SDS011;3222;48.858;10.128;2023-05-07T15:01:53;1.30;;;1.20;;
6378;SDS011;3222;48.858;10.128;2023-05-07T15:04:19;2.37;;;1.27;;
6378;SDS011;3222;48.858;10.128;2023-05-07T15:06:45;2.00;;;1.50;;
6378;SDS011;3222;48.858;10.128;2023-05-07T15:09:11;1.42;;;1.33;;
6378;SDS011;3222;48.858;10.128;2023-05-07T15:11:37;2.00;;;1.90;;
6378;SDS011;3222;48.858;10.128;2023-05-07T15:14:03;1.67;;;1.57;;
6378;SDS011;3222;48.858;10.128;2023-05-07T15:16:28;1.60;;;1.50;;
6378;SDS011;3222;48.858;10.128;2023-05-07T15:18:54;2.60;;;1.30;;